createdAt,value
2023-01-19T00:01:27.280Z,1.45
2023-01-19T00:04:14.205Z,1.27
2023-01-19T00:07:03.223Z,1.50
2023-01-19T00:09:49.869Z,1.52
2023-01-19T00:12:35.842Z,1.30
2023-01-19T00:15:22.013Z,1.20
2023-01-19T00:18:10.679Z,0.90
2023-01-19T00:20:57.508Z,0.90
2023-01-19T00:23:47.359Z,0.80
2023-01-19T00:26:33.655Z,0.70
2023-01-19T00:29:20.512Z,0.80
2023-01-19T00:32:07.225Z,0.90
2023-01-19T00:34:53.553Z,0.80
2023-01-19T00:37:39.794Z,0.77
2023-01-19T00:40:25.984Z,0.70
2023-01-19T00:43:12.532Z,0.80
2023-01-19T00:45:58.647Z,0.93
2023-01-19T00:48:45.134Z,0.55
2023-01-19T00:51:31.563Z,0.93
2023-01-19T00:54:17.738Z,0.50
2023-01-19T00:57:03.842Z,0.47
2023-01-19T00:59:50.000Z,0.50
2023-01-19T01:02:36.899Z,0.40
2023-01-19T01:05:23.161Z,0.40
2023-01-19T01:08:09.363Z,0.50
2023-01-19T01:10:55.519Z,0.40
2023-01-19T01:13:41.488Z,0.32
2023-01-19T01:16:27.563Z,0.40
2023-01-19T01:19:13.698Z,0.20
2023-01-19T01:21:59.745Z,0.13
2023-01-19T01:24:46.209Z,0.30
2023-01-19T01:27:32.605Z,0.40
2023-01-19T01:30:19.690Z,0.22
2023-01-19T01:33:05.929Z,0.30
2023-01-19T01:35:52.282Z,0.47
2023-01-19T01:38:39.701Z,0.32
2023-01-19T01:41:27.405Z,0.50
2023-01-19T01:44:51.607Z,0.52
2023-01-19T01:47:46.946Z,0.55
2023-01-19T01:50:35.520Z,0.55
2023-01-19T01:53:21.396Z,0.60
2023-01-19T01:56:13.287Z,0.60
2023-01-19T01:59:00.319Z,0.60
2023-01-19T02:02:04.611Z,0.50
2023-01-19T02:04:54.241Z,0.60
2023-01-19T02:08:06.764Z,0.60
2023-01-19T02:11:11.695Z,0.60
2023-01-19T02:13:57.769Z,0.70
2023-01-19T02:16:43.753Z,1.02
2023-01-19T02:19:43.881Z,0.90
2023-01-19T02:22:39.041Z,1.38
2023-01-19T02:25:25.686Z,1.67
2023-01-19T02:28:12.051Z,1.67
2023-01-19T02:30:58.909Z,1.95
2023-01-19T02:33:44.708Z,2.10
2023-01-19T02:36:58.741Z,1.90
2023-01-19T02:39:57.780Z,2.03
2023-01-19T02:42:50.875Z,2.05
2023-01-19T02:45:38.114Z,1.80
2023-01-19T02:48:24.101Z,1.48
2023-01-19T02:51:24.320Z,1.52
2023-01-19T02:54:16.477Z,1.38
2023-01-19T02:57:11.336Z,1.13
2023-01-19T03:00:32.714Z,1.00
2023-01-19T03:03:25.741Z,0.80
2023-01-19T03:06:17.717Z,0.88
2023-01-19T03:09:13.757Z,1.05
2023-01-19T03:12:36.435Z,1.10
2023-01-19T03:15:35.129Z,1.23
2023-01-19T03:18:25.022Z,1.33
2023-01-19T03:21:12.761Z,1.40
2023-01-19T03:24:02.822Z,1.70
2023-01-19T03:26:57.768Z,1.70
2023-01-19T03:29:51.041Z,1.77
2023-01-19T03:32:41.566Z,1.80
2023-01-19T03:35:32.474Z,2.20
2023-01-19T03:38:25.058Z,2.30
2023-01-19T03:41:15.661Z,2.13
2023-01-19T03:44:02.402Z,2.30
2023-01-19T03:46:48.929Z,2.70
2023-01-19T03:49:37.039Z,3.15
2023-01-19T03:52:30.068Z,3.95
2023-01-19T03:55:15.700Z,4.72
2023-01-19T03:58:01.600Z,5.22
2023-01-19T04:00:47.408Z,7.75
2023-01-19T04:03:33.761Z,7.03
2023-01-19T04:06:21.031Z,8.27
2023-01-19T04:09:06.864Z,9.38
2023-01-19T04:11:53.026Z,10.15
2023-01-19T04:14:38.972Z,11.55
2023-01-19T04:17:24.946Z,12.73
2023-01-19T04:20:11.505Z,12.93
2023-01-19T04:23:01.767Z,14.55
2023-01-19T04:25:48.011Z,14.55
2023-01-19T04:28:40.045Z,14.98
2023-01-19T04:31:26.320Z,14.63
2023-01-19T04:34:12.365Z,15.43
2023-01-19T04:36:58.546Z,15.43
2023-01-19T04:39:44.617Z,14.57
2023-01-19T04:42:31.150Z,14.82
2023-01-19T04:45:17.521Z,15.63
2023-01-19T04:48:07.749Z,15.48
2023-01-19T04:50:54.085Z,14.52
2023-01-19T04:53:40.260Z,15.55
2023-01-19T04:56:26.217Z,16.35
2023-01-19T04:59:12.450Z,15.27
2023-01-19T05:01:59.267Z,16.95
2023-01-19T05:04:46.384Z,17.10
2023-01-19T05:07:32.448Z,17.17
2023-01-19T05:10:18.780Z,17.17
2023-01-19T05:13:05.643Z,17.75
2023-01-19T05:15:52.201Z,16.80
2023-01-19T05:18:38.353Z,18.48
2023-01-19T05:21:24.520Z,18.58
2023-01-19T05:24:10.756Z,17.63
2023-01-19T05:26:57.066Z,17.27
2023-01-19T05:29:43.108Z,17.38
2023-01-19T05:32:29.449Z,16.52
2023-01-19T05:35:18.263Z,16.65
2023-01-19T05:38:06.639Z,16.10
2023-01-19T05:40:57.904Z,16.48
2023-01-19T05:43:43.988Z,15.75
2023-01-19T05:46:30.194Z,15.15
2023-01-19T05:49:16.349Z,15.40
2023-01-19T05:52:02.598Z,14.95
2023-01-19T05:54:49.028Z,16.50
2023-01-19T05:57:35.073Z,15.88
2023-01-19T06:00:21.628Z,16.92
2023-01-19T06:03:07.929Z,16.40
2023-01-19T06:05:54.135Z,17.42
2023-01-19T06:08:40.774Z,16.50
2023-01-19T06:11:26.989Z,16.08
2023-01-19T06:14:14.050Z,16.83
2023-01-19T06:17:00.178Z,16.75
2023-01-19T06:19:46.205Z,16.50
2023-01-19T06:22:32.399Z,16.05
2023-01-19T06:25:18.651Z,14.90
2023-01-19T06:28:04.795Z,15.95
2023-01-19T06:30:51.426Z,15.02
2023-01-19T06:33:37.751Z,14.30
2023-01-19T06:36:23.778Z,15.35
2023-01-19T06:39:10.747Z,14.68
2023-01-19T06:41:56.658Z,14.20
2023-01-19T06:44:47.628Z,14.00
2023-01-19T06:47:34.544Z,13.95
2023-01-19T06:50:20.858Z,13.57
2023-01-19T06:53:06.852Z,11.98
2023-01-19T06:55:53.143Z,12.18
2023-01-19T06:58:40.911Z,12.68
2023-01-19T07:01:27.321Z,12.27
2023-01-19T07:04:15.249Z,12.18
2023-01-19T07:07:01.612Z,12.20
2023-01-19T07:09:48.165Z,11.15
2023-01-19T07:12:34.176Z,10.95
2023-01-19T07:15:21.904Z,10.95
2023-01-19T07:18:09.343Z,10.35
2023-01-19T07:20:57.850Z,10.43
2023-01-19T07:23:43.878Z,9.73
2023-01-19T07:26:30.970Z,10.18
2023-01-19T07:29:17.068Z,10.10
2023-01-19T07:32:03.315Z,10.07
2023-01-19T07:34:49.488Z,10.07
2023-01-19T07:37:35.562Z,11.00
2023-01-19T07:40:23.943Z,11.15
2023-01-19T07:43:10.073Z,11.32
2023-01-19T07:45:57.927Z,12.25
2023-01-19T07:48:44.634Z,11.82
2023-01-19T07:51:30.961Z,11.27
2023-01-19T07:54:17.319Z,9.90
2023-01-19T07:57:04.154Z,10.45
2023-01-19T07:59:50.287Z,9.68
2023-01-19T08:02:37.298Z,9.30
2023-01-19T08:05:23.622Z,10.98
2023-01-19T08:08:11.694Z,10.30
2023-01-19T08:10:57.918Z,9.20
2023-01-19T08:13:44.292Z,8.38
2023-01-19T08:16:30.218Z,9.20
2023-01-19T08:19:16.435Z,8.80
2023-01-19T08:22:02.530Z,8.48
2023-01-19T08:24:50.345Z,8.32
2023-01-19T08:27:36.461Z,7.55
2023-01-19T08:30:23.960Z,7.88
2023-01-19T08:33:10.764Z,7.28
2023-01-19T08:35:56.969Z,6.75
2023-01-19T08:38:45.063Z,7.40
2023-01-19T08:41:31.148Z,7.72
2023-01-19T08:44:17.372Z,7.28
2023-01-19T08:47:03.604Z,7.93
2023-01-19T08:49:49.676Z,7.22
2023-01-19T08:52:35.758Z,8.02
2023-01-19T08:55:21.901Z,7.57
2023-01-19T08:58:08.978Z,7.88
2023-01-19T09:00:55.210Z,7.47
2023-01-19T09:03:41.953Z,7.13
2023-01-19T09:06:28.501Z,7.10
2023-01-19T09:09:14.786Z,7.35
2023-01-19T09:12:01.113Z,7.05
2023-01-19T09:14:47.120Z,7.65
2023-01-19T09:17:33.528Z,8.00
2023-01-19T09:20:20.003Z,8.60
2023-01-19T09:23:06.488Z,8.13
2023-01-19T09:25:57.165Z,9.02
2023-01-19T09:28:43.541Z,8.05
2023-01-19T09:31:30.297Z,7.43
2023-01-19T09:34:16.805Z,7.57
2023-01-19T09:37:03.967Z,7.05
2023-01-19T09:39:50.131Z,7.93
2023-01-19T09:42:48.461Z,7.63
2023-01-19T09:45:40.415Z,7.97
2023-01-19T09:48:30.316Z,7.80
2023-01-19T09:51:19.495Z,8.45
2023-01-19T09:54:18.054Z,7.78
2023-01-19T09:57:05.159Z,7.30
2023-01-19T09:59:51.669Z,6.93
2023-01-19T10:02:41.439Z,7.45
2023-01-19T10:05:31.541Z,6.72
2023-01-19T10:08:17.864Z,6.85
2023-01-19T10:11:06.664Z,7.07
2023-01-19T10:13:54.318Z,7.55
2023-01-19T10:16:40.515Z,6.70
2023-01-19T10:19:39.051Z,7.63
2023-01-19T10:22:26.553Z,7.18
2023-01-19T10:25:19.264Z,8.15
2023-01-19T10:28:05.892Z,7.22
2023-01-19T10:30:52.666Z,8.00
2023-01-19T10:33:39.807Z,8.05
2023-01-19T10:36:30.321Z,6.85
2023-01-19T10:39:18.247Z,7.88
2023-01-19T10:42:04.698Z,7.63
2023-01-19T10:44:51.249Z,7.32
2023-01-19T10:47:38.526Z,7.22
2023-01-19T10:50:27.284Z,7.60
2023-01-19T10:53:25.799Z,6.78
2023-01-19T10:56:17.375Z,7.47
2023-01-19T10:59:05.636Z,6.38
2023-01-19T11:02:11.086Z,6.22
2023-01-19T11:04:58.867Z,7.18
2023-01-19T11:07:45.534Z,7.07
2023-01-19T11:10:31.951Z,6.68
2023-01-19T11:13:18.086Z,7.35
2023-01-19T11:16:07.256Z,7.85
2023-01-19T11:18:55.110Z,8.15
2023-01-19T11:21:41.100Z,9.02
2023-01-19T11:24:27.364Z,8.25
2023-01-19T11:27:16.987Z,8.88
2023-01-19T11:30:09.833Z,8.15
2023-01-19T11:32:56.974Z,7.97
2023-01-19T11:35:43.330Z,7.70
2023-01-19T11:38:29.734Z,7.85
2023-01-19T11:41:19.166Z,7.57
2023-01-19T11:44:15.255Z,8.50
2023-01-19T11:47:03.629Z,7.43
2023-01-19T11:49:53.612Z,7.70
2023-01-19T11:52:46.511Z,7.43
2023-01-19T11:55:42.304Z,7.28
2023-01-19T11:58:29.286Z,7.30
2023-01-19T12:01:26.479Z,7.93
2023-01-19T12:04:20.537Z,7.45
2023-01-19T12:07:11.073Z,7.57
2023-01-19T12:10:24.075Z,7.43
2023-01-19T12:13:25.060Z,7.88
2023-01-19T12:16:29.769Z,7.35
2023-01-19T12:19:25.475Z,7.63
2023-01-19T12:22:21.979Z,7.65
2023-01-19T12:25:17.748Z,8.43
2023-01-19T12:28:04.721Z,8.23
2023-01-19T12:30:52.430Z,8.52
2023-01-19T12:33:40.066Z,7.90
2023-01-19T12:36:36.625Z,8.38
2023-01-19T12:39:23.730Z,8.40
2023-01-19T12:42:20.475Z,8.48
2023-01-19T12:45:09.881Z,9.30
2023-01-19T12:47:57.510Z,9.32
2023-01-19T12:50:47.133Z,9.30
2023-01-19T12:53:33.339Z,9.52
2023-01-19T12:56:20.372Z,9.55
2023-01-19T12:59:06.784Z,9.85
2023-01-19T13:02:12.191Z,9.95
2023-01-19T13:05:07.563Z,9.40
2023-01-19T13:08:03.843Z,9.82
2023-01-19T13:11:02.961Z,9.98
2023-01-19T13:13:49.649Z,9.82
2023-01-19T13:16:39.103Z,9.55
2023-01-19T13:19:31.964Z,9.73
2023-01-19T13:22:37.944Z,9.50
2023-01-19T13:25:29.395Z,9.02
2023-01-19T13:28:17.861Z,8.60
2023-01-19T13:31:05.802Z,9.48
2023-01-19T13:33:53.866Z,8.88
2023-01-19T13:36:43.625Z,9.38
2023-01-19T13:39:31.053Z,9.48
2023-01-19T13:42:40.828Z,9.68
2023-01-19T13:45:33.537Z,9.25
2023-01-19T13:48:22.345Z,9.18
2023-01-19T13:51:17.675Z,10.38
2023-01-19T13:54:05.807Z,9.57
2023-01-19T13:56:53.132Z,10.60
2023-01-19T13:59:39.330Z,10.40
2023-01-19T14:02:26.073Z,10.10
2023-01-19T14:05:16.438Z,11.60
2023-01-19T14:08:11.134Z,11.32
2023-01-19T14:10:58.643Z,11.63
2023-01-19T14:13:45.260Z,11.75
2023-01-19T14:16:32.078Z,11.45
2023-01-19T14:19:18.443Z,10.93
2023-01-19T14:22:05.570Z,11.55
2023-01-19T14:24:52.266Z,11.85
2023-01-19T14:27:39.723Z,11.40
2023-01-19T14:30:30.033Z,11.50
2023-01-19T14:33:35.554Z,11.20
2023-01-19T14:36:48.099Z,12.15
2023-01-19T14:39:36.402Z,11.93
2023-01-19T14:42:25.854Z,12.75
2023-01-19T14:45:21.187Z,11.43
2023-01-19T14:48:13.498Z,11.98
2023-01-19T14:51:04.799Z,11.83
2023-01-19T14:53:58.722Z,12.82
2023-01-19T14:56:45.907Z,13.18
2023-01-19T14:59:32.759Z,14.15
2023-01-19T15:02:20.122Z,13.82
2023-01-19T15:05:09.479Z,13.20
2023-01-19T15:08:03.304Z,13.95
2023-01-19T15:10:49.887Z,14.55
2023-01-19T15:13:36.617Z,15.35
2023-01-19T15:16:25.211Z,15.75
2023-01-19T15:19:16.084Z,16.48
2023-01-19T15:22:02.651Z,16.50
2023-01-19T15:24:50.132Z,16.58
2023-01-19T15:27:36.787Z,17.02
2023-01-19T15:30:25.609Z,18.88
2023-01-19T15:33:27.209Z,18.20
2023-01-19T15:36:18.417Z,20.42
2023-01-19T15:39:05.711Z,21.42
2023-01-19T15:41:52.871Z,22.27
2023-01-19T15:44:39.787Z,23.20
2023-01-19T15:47:26.511Z,23.33
2023-01-19T15:50:13.423Z,23.38
2023-01-19T15:53:00.878Z,22.13
2023-01-19T15:55:50.577Z,23.75
2023-01-19T15:58:37.282Z,23.70
2023-01-19T16:01:25.387Z,23.60
2023-01-19T16:04:12.568Z,23.52
2023-01-19T16:06:59.442Z,23.55
2023-01-19T16:09:46.147Z,26.15
2023-01-19T16:12:32.835Z,25.70
2023-01-19T16:15:19.199Z,26.58
2023-01-19T16:18:05.905Z,25.67
2023-01-19T16:20:52.299Z,27.30
2023-01-19T16:23:39.065Z,27.10
2023-01-19T16:26:28.588Z,26.45
2023-01-19T16:29:15.983Z,27.65
2023-01-19T16:32:02.280Z,27.50
2023-01-19T16:34:48.381Z,27.85
2023-01-19T16:37:35.254Z,26.42
2023-01-19T16:40:21.471Z,26.15
2023-01-19T16:43:07.726Z,25.42
2023-01-19T16:46:04.445Z,29.25
2023-01-19T16:48:51.760Z,28.40
2023-01-19T16:51:38.403Z,28.83
2023-01-19T16:54:28.497Z,28.83
2023-01-19T16:57:15.646Z,31.17
2023-01-19T17:00:02.444Z,31.13
2023-01-19T17:02:49.150Z,31.88
2023-01-19T17:05:35.164Z,32.97
2023-01-19T17:08:21.939Z,37.20
2023-01-19T17:11:12.628Z,40.20
2023-01-19T17:14:02.804Z,43.35
2023-01-19T17:16:49.966Z,41.83
2023-01-19T17:19:36.152Z,40.03
2023-01-19T17:22:22.410Z,39.78
2023-01-19T17:25:09.181Z,38.58
2023-01-19T17:27:55.723Z,37.88
2023-01-19T17:30:42.212Z,37.88
2023-01-19T17:33:28.438Z,36.67
2023-01-19T17:36:15.765Z,34.95
2023-01-19T17:39:07.955Z,35.83
2023-01-19T17:41:54.653Z,33.08
2023-01-19T17:44:42.619Z,31.88
2023-01-19T17:47:28.528Z,32.38
2023-01-19T17:50:14.865Z,30.15
2023-01-19T17:53:01.908Z,31.52
2023-01-19T17:55:48.945Z,30.00
2023-01-19T17:58:35.302Z,31.20
2023-01-19T18:01:22.833Z,30.50
2023-01-19T18:04:09.712Z,30.58
2023-01-19T18:06:55.939Z,29.92
2023-01-19T18:09:42.336Z,30.10
2023-01-19T18:12:28.266Z,29.80
2023-01-19T18:15:16.705Z,30.95
2023-01-19T18:18:03.105Z,30.23
2023-01-19T18:20:49.129Z,31.48
2023-01-19T18:23:35.529Z,31.08
2023-01-19T18:26:22.940Z,32.20
2023-01-19T18:29:09.142Z,31.98
2023-01-19T18:31:55.178Z,30.65
2023-01-19T18:34:41.170Z,29.10
2023-01-19T18:37:27.248Z,31.42
2023-01-19T18:40:13.931Z,31.38
2023-01-19T18:43:00.907Z,33.70
2023-01-19T18:45:48.272Z,33.35
2023-01-19T18:48:36.055Z,33.40
2023-01-19T18:51:22.482Z,33.28
2023-01-19T18:54:08.477Z,33.00
2023-01-19T18:56:54.501Z,33.50
2023-01-19T18:59:43.942Z,33.03
2023-01-19T19:02:29.989Z,32.97
2023-01-19T19:05:16.729Z,34.63
2023-01-19T19:08:03.142Z,31.55
2023-01-19T19:10:49.363Z,30.02
2023-01-19T19:13:35.777Z,31.02
2023-01-19T19:16:22.965Z,32.70
2023-01-19T19:19:12.581Z,31.67
2023-01-19T19:21:59.299Z,31.65
2023-01-19T19:24:46.371Z,32.13
2023-01-19T19:27:33.109Z,31.85
2023-01-19T19:30:20.558Z,30.42
2023-01-19T19:33:08.477Z,32.97
2023-01-19T19:35:58.134Z,35.08
2023-01-19T19:38:44.827Z,32.85
2023-01-19T19:41:32.538Z,33.97
2023-01-19T19:44:18.987Z,31.88
2023-01-19T19:47:05.211Z,33.30
2023-01-19T19:49:51.326Z,33.67
2023-01-19T19:52:41.810Z,32.78
2023-01-19T19:55:28.365Z,33.90
2023-01-19T19:58:14.519Z,34.22
2023-01-19T20:01:03.606Z,36.72
2023-01-19T20:03:50.834Z,35.30
2023-01-19T20:06:40.379Z,34.95
2023-01-19T20:09:26.999Z,38.45
2023-01-19T20:12:14.130Z,35.90
2023-01-19T20:15:00.289Z,39.35
2023-01-19T20:17:46.391Z,39.88
2023-01-19T20:20:33.711Z,38.47
2023-01-19T20:23:20.292Z,38.22
2023-01-19T20:26:08.599Z,37.70
2023-01-19T20:28:55.571Z,37.42
2023-01-19T20:31:53.056Z,42.00
2023-01-19T20:34:39.946Z,39.38
2023-01-19T20:37:27.282Z,39.33
2023-01-19T20:40:13.593Z,38.80
2023-01-19T20:43:00.548Z,43.20
2023-01-19T20:45:51.292Z,43.72
2023-01-19T20:48:39.361Z,43.20
2023-01-19T20:51:26.920Z,43.35
2023-01-19T20:54:18.998Z,48.85
2023-01-19T20:57:05.486Z,45.93
2023-01-19T20:59:51.707Z,45.95
2023-01-19T21:02:38.256Z,45.25
2023-01-19T21:05:25.754Z,48.67
2023-01-19T21:08:13.455Z,51.70
2023-01-19T21:11:00.316Z,50.58
2023-01-19T21:13:46.613Z,48.72
2023-01-19T21:16:34.137Z,52.13
2023-01-19T21:19:21.034Z,47.53
2023-01-19T21:22:07.701Z,47.78
2023-01-19T21:24:54.347Z,52.33
2023-01-19T21:27:40.519Z,54.47
2023-01-19T21:30:28.004Z,52.83
2023-01-19T21:33:14.948Z,55.45
2023-01-19T21:36:02.104Z,55.47
2023-01-19T21:38:49.198Z,54.17
2023-01-19T21:41:39.227Z,53.72
2023-01-19T21:44:25.685Z,57.75
2023-01-19T21:47:12.511Z,52.50
2023-01-19T21:49:59.807Z,57.00
2023-01-19T21:52:46.679Z,50.08
2023-01-19T21:55:34.046Z,52.97
2023-01-19T21:58:20.050Z,52.30
2023-01-19T22:01:10.947Z,46.15
2023-01-19T22:03:57.674Z,53.47
2023-01-19T22:06:44.103Z,45.03
2023-01-19T22:09:30.303Z,62.53
2023-01-19T22:12:16.437Z,51.60
2023-01-19T22:15:03.150Z,50.20
2023-01-19T22:17:49.336Z,48.70
2023-01-19T22:20:35.519Z,51.17
2023-01-19T22:23:22.275Z,66.25
2023-01-19T22:26:09.699Z,54.92
2023-01-19T22:28:56.801Z,54.78
2023-01-19T22:31:43.257Z,52.53
2023-01-19T22:34:29.471Z,50.58
2023-01-19T22:37:15.447Z,60.00
2023-01-19T22:40:01.945Z,49.95
2023-01-19T22:42:49.103Z,44.60
2023-01-19T22:45:35.589Z,46.85
2023-01-19T22:48:22.332Z,40.60
2023-01-19T22:51:08.586Z,38.05
2023-01-19T22:53:54.663Z,46.80
2023-01-19T22:56:41.407Z,40.55
2023-01-19T22:59:27.391Z,41.13
2023-01-19T23:02:13.603Z,43.42
2023-01-19T23:04:59.556Z,44.30
2023-01-19T23:07:45.607Z,42.53
2023-01-19T23:10:31.706Z,42.83
2023-01-19T23:13:17.723Z,42.38
2023-01-19T23:16:04.249Z,31.70
2023-01-19T23:18:53.362Z,32.55
2023-01-19T23:21:39.729Z,39.67
2023-01-19T23:24:25.882Z,39.17
2023-01-19T23:27:12.040Z,38.17
2023-01-19T23:29:58.161Z,45.55
2023-01-19T23:32:47.458Z,34.17
2023-01-19T23:35:35.711Z,42.08
2023-01-19T23:38:22.670Z,52.78
2023-01-19T23:41:09.521Z,38.60
2023-01-19T23:43:55.565Z,35.80
2023-01-19T23:46:43.999Z,42.95
2023-01-19T23:49:29.918Z,38.83
2023-01-19T23:52:15.868Z,45.70
2023-01-19T23:55:01.854Z,37.95
2023-01-19T23:57:47.915Z,41.15
